sensor_id;sensor_type;location;lat;lon;timestamp;P1;P2;P0
77892;PMS5003;67087;50.094;14.338;2023-06-26T00:01:30;8;7;
77892;PMS5003;67087;50.094;14.338;2023-06-26T00:03:55;8;8;
77892;PMS5003;67087;50.094;14.338;2023-06-26T00:06:20;8;8;
77892;PMS5003;67087;50.094;14.338;2023-06-26T00:08:45;8;8;
77892;PMS5003;67087;50.094;14.338;2023-06-26T00:11:10;8;8;
77892;PMS5003;67087;50.094;14.338;2023-06-26T00:13:35;6;6;
77892;PMS5003;67087;50.094;14.338;2023-06-26T00:16:00;8;8;
77892;PMS5003;67087;50.094;14.338;2023-06-26T00:18:25;10;9;
77892;PMS5003;67087;50.094;14.338;2023-06-26T00:20:50;10;10;
77892;PMS5003;67087;50.094;14.338;2023-06-26T00:23:16;8;8;
77892;PMS5003;67087;50.094;14.338;2023-06-26T00:25:40;8;7;
77892;PMS5003;67087;50.094;14.338;2023-06-26T00:28:05;6;6;
77892;PMS5003;67087;50.094;14.338;2023-06-26T00:30:30;8;8;
77892;PMS5003;67087;50.094;14.338;2023-06-26T00:32:55;7;7;
77892;PMS5003;67087;50.094;14.338;2023-06-26T00:35:20;7;7;
77892;PMS5003;67087;50.094;14.338;2023-06-26T00:37:46;9;9;
77892;PMS5003;67087;50.094;14.338;2023-06-26T00:40:12;10;10;
77892;PMS5003;67087;50.094;14.338;2023-06-26T00:42:36;7;7;
77892;PMS5003;67087;50.094;14.338;2023-06-26T00:45:01;7;7;
77892;PMS5003;67087;50.094;14.338;2023-06-26T00:47:26;6;6;
77892;PMS5003;67087;50.094;14.338;2023-06-26T00:49:51;8;8;
77892;PMS5003;67087;50.094;14.338;2023-06-26T00:52:16;6;6;
77892;PMS5003;67087;50.094;14.338;2023-06-26T00:54:41;6;6;
77892;PMS5003;67087;50.094;14.338;2023-06-26T00:57:06;7;7;
77892;PMS5003;67087;50.094;14.338;2023-06-26T00:59:32;7;7;
77892;PMS5003;67087;50.094;14.338;2023-06-26T01:01:57;6;6;
77892;PMS5003;67087;50.094;14.338;2023-06-26T01:04:22;6;6;
77892;PMS5003;67087;50.094;14.338;2023-06-26T01:06:47;6;6;
77892;PMS5003;67087;50.094;14.338;2023-06-26T01:09:12;7;6;
77892;PMS5003;67087;50.094;14.338;2023-06-26T01:11:37;6;6;
77892;PMS5003;67087;50.094;14.338;2023-06-26T01:14:02;5;5;
77892;PMS5003;67087;50.094;14.338;2023-06-26T01:16:27;6;6;
77892;PMS5003;67087;50.094;14.338;2023-06-26T01:18:52;6;5;
77892;PMS5003;67087;50.094;14.338;2023-06-26T01:21:17;6;6;
77892;PMS5003;67087;50.094;14.338;2023-06-26T01:23:47;7;7;
77892;PMS5003;67087;50.094;14.338;2023-06-26T01:26:11;6;6;
77892;PMS5003;67087;50.094;14.338;2023-06-26T01:28:32;7;7;
77892;PMS5003;67087;50.094;14.338;2023-06-26T01:30:57;8;8;
77892;PMS5003;67087;50.094;14.338;2023-06-26T01:33:23;6;6;
77892;PMS5003;67087;50.094;14.338;2023-06-26T01:35:48;6;5;
77892;PMS5003;67087;50.094;14.338;2023-06-26T01:38:14;5;5;
77892;PMS5003;67087;50.094;14.338;2023-06-26T01:40:38;5;5;
77892;PMS5003;67087;50.094;14.338;2023-06-26T01:43:03;5;5;
77892;PMS5003;67087;50.094;14.338;2023-06-26T01:45:28;5;5;
77892;PMS5003;67087;50.094;14.338;2023-06-26T01:47:53;6;6;
77892;PMS5003;67087;50.094;14.338;2023-06-26T01:50:20;7;7;
77892;PMS5003;67087;50.094;14.338;2023-06-26T01:52:45;7;7;
77892;PMS5003;67087;50.094;14.338;2023-06-26T01:55:10;6;6;
77892;PMS5003;67087;50.094;14.338;2023-06-26T01:57:33;6;6;
77892;PMS5003;67087;50.094;14.338;2023-06-26T01:59:58;6;6;
77892;PMS5003;67087;50.094;14.338;2023-06-26T02:02:24;6;6;
77892;PMS5003;67087;50.094;14.338;2023-06-26T02:04:48;5;5;
77892;PMS5003;67087;50.094;14.338;2023-06-26T02:07:14;7;6;
77892;PMS5003;67087;50.094;14.338;2023-06-26T02:09:39;6;5;
77892;PMS5003;67087;50.094;14.338;2023-06-26T02:12:04;6;6;
77892;PMS5003;67087;50.094;14.338;2023-06-26T02:14:29;6;6;
77892;PMS5003;67087;50.094;14.338;2023-06-26T02:16:54;6;6;
77892;PMS5003;67087;50.094;14.338;2023-06-26T02:19:19;5;5;
77892;PMS5003;67087;50.094;14.338;2023-06-26T02:21:44;6;5;
77892;PMS5003;67087;50.094;14.338;2023-06-26T02:24:09;5;5;
77892;PMS5003;67087;50.094;14.338;2023-06-26T02:26:34;6;6;
77892;PMS5003;67087;50.094;14.338;2023-06-26T02:28:59;5;5;
77892;PMS5003;67087;50.094;14.338;2023-06-26T02:31:24;7;7;
77892;PMS5003;67087;50.094;14.338;2023-06-26T02:33:49;5;5;
77892;PMS5003;67087;50.094;14.338;2023-06-26T02:36:14;5;5;
77892;PMS5003;67087;50.094;14.338;2023-06-26T02:38:39;4;4;
77892;PMS5003;67087;50.094;14.338;2023-06-26T02:41:04;6;5;
77892;PMS5003;67087;50.094;14.338;2023-06-26T02:43:29;5;5;
77892;PMS5003;67087;50.094;14.338;2023-06-26T02:45:54;7;7;
77892;PMS5003;67087;50.094;14.338;2023-06-26T02:48:19;3;3;
77892;PMS5003;67087;50.094;14.338;2023-06-26T02:50:45;6;5;
77892;PMS5003;67087;50.094;14.338;2023-06-26T02:53:10;4;4;
77892;PMS5003;67087;50.094;14.338;2023-06-26T02:55:35;4;4;
77892;PMS5003;67087;50.094;14.338;2023-06-26T02:58:00;5;5;
77892;PMS5003;67087;50.094;14.338;2023-06-26T03:00:25;4;4;
77892;PMS5003;67087;50.094;14.338;2023-06-26T03:02:50;4;4;
77892;PMS5003;67087;50.094;14.338;2023-06-26T03:05:15;6;6;
77892;PMS5003;67087;50.094;14.338;2023-06-26T03:07:40;6;6;
77892;PMS5003;67087;50.094;14.338;2023-06-26T03:10:05;5;5;
77892;PMS5003;67087;50.094;14.338;2023-06-26T03:12:30;3;3;
77892;PMS5003;67087;50.094;14.338;2023-06-26T03:14:55;4;3;
77892;PMS5003;67087;50.094;14.338;2023-06-26T03:17:20;6;6;
77892;PMS5003;67087;50.094;14.338;2023-06-26T03:19:45;4;4;
77892;PMS5003;67087;50.094;14.338;2023-06-26T03:22:10;3;3;
77892;PMS5003;67087;50.094;14.338;2023-06-26T03:24:35;5;5;
77892;PMS5003;67087;50.094;14.338;2023-06-26T03:27:00;4;4;
77892;PMS5003;67087;50.094;14.338;2023-06-26T03:29:25;7;7;
77892;PMS5003;67087;50.094;14.338;2023-06-26T03:31:50;4;4;
77892;PMS5003;67087;50.094;14.338;2023-06-26T03:34:15;6;5;
77892;PMS5003;67087;50.094;14.338;2023-06-26T03:36:40;4;4;
77892;PMS5003;67087;50.094;14.338;2023-06-26T03:39:05;4;4;
77892;PMS5003;67087;50.094;14.338;2023-06-26T03:41:30;5;5;
77892;PMS5003;67087;50.094;14.338;2023-06-26T03:43:56;5;5;
77892;PMS5003;67087;50.094;14.338;2023-06-26T03:46:21;5;5;
77892;PMS5003;67087;50.094;14.338;2023-06-26T03:48:46;5;5;
77892;PMS5003;67087;50.094;14.338;2023-06-26T03:51:11;4;4;
77892;PMS5003;67087;50.094;14.338;2023-06-26T03:53:36;5;5;
77892;PMS5003;67087;50.094;14.338;2023-06-26T03:56:01;6;6;
77892;PMS5003;67087;50.094;14.338;2023-06-26T03:58:26;5;5;
77892;PMS5003;67087;50.094;14.338;2023-06-26T04:00:51;6;6;
77892;PMS5003;67087;50.094;14.338;2023-06-26T04:03:16;5;5;
77892;PMS5003;67087;50.094;14.338;2023-06-26T04:05:41;4;4;
77892;PMS5003;67087;50.094;14.338;2023-06-26T04:08:06;4;4;
77892;PMS5003;67087;50.094;14.338;2023-06-26T04:10:31;4;4;
77892;PMS5003;67087;50.094;14.338;2023-06-26T04:12:56;6;5;
77892;PMS5003;67087;50.094;14.338;2023-06-26T04:15:21;4;4;
77892;PMS5003;67087;50.094;14.338;2023-06-26T04:17:46;5;4;
77892;PMS5003;67087;50.094;14.338;2023-06-26T04:20:11;5;5;
77892;PMS5003;67087;50.094;14.338;2023-06-26T04:22:36;5;5;
77892;PMS5003;67087;50.094;14.338;2023-06-26T04:25:02;4;4;
77892;PMS5003;67087;50.094;14.338;2023-06-26T04:27:26;6;6;
77892;PMS5003;67087;50.094;14.338;2023-06-26T04:29:51;5;5;
77892;PMS5003;67087;50.094;14.338;2023-06-26T04:32:16;5;5;
77892;PMS5003;67087;50.094;14.338;2023-06-26T04:34:41;5;5;
77892;PMS5003;67087;50.094;14.338;2023-06-26T04:37:06;5;5;
77892;PMS5003;67087;50.094;14.338;2023-06-26T04:39:32;4;4;
77892;PMS5003;67087;50.094;14.338;2023-06-26T04:41:57;6;5;
77892;PMS5003;67087;50.094;14.338;2023-06-26T04:44:22;4;4;
77892;PMS5003;67087;50.094;14.338;2023-06-26T04:46:47;7;6;
77892;PMS5003;67087;50.094;14.338;2023-06-26T04:49:12;14;14;
77892;PMS5003;67087;50.094;14.338;2023-06-26T04:51:37;14;14;
77892;PMS5003;67087;50.094;14.338;2023-06-26T04:54:02;16;16;
77892;PMS5003;67087;50.094;14.338;2023-06-26T04:56:27;15;14;
77892;PMS5003;67087;50.094;14.338;2023-06-26T04:58:52;16;16;
77892;PMS5003;67087;50.094;14.338;2023-06-26T05:01:17;18;16;
77892;PMS5003;67087;50.094;14.338;2023-06-26T05:03:43;19;19;
77892;PMS5003;67087;50.094;14.338;2023-06-26T05:06:08;20;19;
77892;PMS5003;67087;50.094;14.338;2023-06-26T05:08:33;16;16;
77892;PMS5003;67087;50.094;14.338;2023-06-26T05:10:58;21;19;
77892;PMS5003;67087;50.094;14.338;2023-06-26T05:13:24;15;15;
77892;PMS5003;67087;50.094;14.338;2023-06-26T05:15:49;16;16;
77892;PMS5003;67087;50.094;14.338;2023-06-26T05:18:15;17;17;
77892;PMS5003;67087;50.094;14.338;2023-06-26T05:20:40;15;15;
77892;PMS5003;67087;50.094;14.338;2023-06-26T05:23:05;18;17;
77892;PMS5003;67087;50.094;14.338;2023-06-26T05:25:30;17;16;
77892;PMS5003;67087;50.094;14.338;2023-06-26T05:27:55;18;16;
77892;PMS5003;67087;50.094;14.338;2023-06-26T05:30:20;17;16;
77892;PMS5003;67087;50.094;14.338;2023-06-26T05:32:46;20;18;
77892;PMS5003;67087;50.094;14.338;2023-06-26T05:35:11;14;14;
77892;PMS5003;67087;50.094;14.338;2023-06-26T05:37:36;18;17;
77892;PMS5003;67087;50.094;14.338;2023-06-26T05:40:01;18;18;
77892;PMS5003;67087;50.094;14.338;2023-06-26T05:42:26;19;18;
77892;PMS5003;67087;50.094;14.338;2023-06-26T05:44:51;18;18;
77892;PMS5003;67087;50.094;14.338;2023-06-26T05:47:16;18;17;
77892;PMS5003;67087;50.094;14.338;2023-06-26T05:49:42;19;19;
77892;PMS5003;67087;50.094;14.338;2023-06-26T05:52:08;20;19;
77892;PMS5003;67087;50.094;14.338;2023-06-26T05:54:33;18;18;
77892;PMS5003;67087;50.094;14.338;2023-06-26T05:56:59;18;18;
77892;PMS5003;67087;50.094;14.338;2023-06-26T05:59:24;21;21;
77892;PMS5003;67087;50.094;14.338;2023-06-26T06:01:49;16;14;
77892;PMS5003;67087;50.094;14.338;2023-06-26T06:04:15;16;16;
77892;PMS5003;67087;50.094;14.338;2023-06-26T06:06:40;21;19;
77892;PMS5003;67087;50.094;14.338;2023-06-26T06:09:05;17;17;
77892;PMS5003;67087;50.094;14.338;2023-06-26T06:11:31;20;19;
77892;PMS5003;67087;50.094;14.338;2023-06-26T06:13:56;15;15;
77892;PMS5003;67087;50.094;14.338;2023-06-26T06:16:21;16;16;
77892;PMS5003;67087;50.094;14.338;2023-06-26T06:18:47;16;16;
77892;PMS5003;67087;50.094;14.338;2023-06-26T06:21:12;16;16;
77892;PMS5003;67087;50.094;14.338;2023-06-26T06:23:37;16;14;
77892;PMS5003;67087;50.094;14.338;2023-06-26T06:26:02;17;17;
77892;PMS5003;67087;50.094;14.338;2023-06-26T06:28:27;16;15;
77892;PMS5003;67087;50.094;14.338;2023-06-26T06:30:53;14;14;
77892;PMS5003;67087;50.094;14.338;2023-06-26T06:33:19;17;16;
77892;PMS5003;67087;50.094;14.338;2023-06-26T06:35:44;14;14;
77892;PMS5003;67087;50.094;14.338;2023-06-26T06:38:09;17;15;
77892;PMS5003;67087;50.094;14.338;2023-06-26T06:40:34;11;11;
77892;PMS5003;67087;50.094;14.338;2023-06-26T06:42:59;14;14;
77892;PMS5003;67087;50.094;14.338;2023-06-26T06:45:25;10;10;
77892;PMS5003;67087;50.094;14.338;2023-06-26T06:47:50;12;12;
77892;PMS5003;67087;50.094;14.338;2023-06-26T06:50:15;13;13;
77892;PMS5003;67087;50.094;14.338;2023-06-26T06:52:40;10;10;
77892;PMS5003;67087;50.094;14.338;2023-06-26T06:55:06;13;13;
77892;PMS5003;67087;50.094;14.338;2023-06-26T06:57:30;13;13;
77892;PMS5003;67087;50.094;14.338;2023-06-26T06:59:55;12;12;
77892;PMS5003;67087;50.094;14.338;2023-06-26T07:02:20;11;11;
77892;PMS5003;67087;50.094;14.338;2023-06-26T07:04:45;11;11;
77892;PMS5003;67087;50.094;14.338;2023-06-26T07:07:11;12;12;
77892;PMS5003;67087;50.094;14.338;2023-06-26T07:09:35;11;11;
77892;PMS5003;67087;50.094;14.338;2023-06-26T07:12:00;11;11;
77892;PMS5003;67087;50.094;14.338;2023-06-26T07:14:25;11;11;
77892;PMS5003;67087;50.094;14.338;2023-06-26T07:16:50;14;13;
77892;PMS5003;67087;50.094;14.338;2023-06-26T07:19:16;13;13;
77892;PMS5003;67087;50.094;14.338;2023-06-26T07:21:41;11;11;
77892;PMS5003;67087;50.094;14.338;2023-06-26T07:24:06;15;13;
77892;PMS5003;67087;50.094;14.338;2023-06-26T07:26:31;9;9;
77892;PMS5003;67087;50.094;14.338;2023-06-26T07:28:56;11;11;
77892;PMS5003;67087;50.094;14.338;2023-06-26T07:31:21;13;12;
77892;PMS5003;67087;50.094;14.338;2023-06-26T07:33:47;10;10;
77892;PMS5003;67087;50.094;14.338;2023-06-26T07:36:11;13;12;
77892;PMS5003;67087;50.094;14.338;2023-06-26T07:38:36;13;11;
77892;PMS5003;67087;50.094;14.338;2023-06-26T07:41:02;14;14;
77892;PMS5003;67087;50.094;14.338;2023-06-26T07:43:27;11;11;
77892;PMS5003;67087;50.094;14.338;2023-06-26T07:45:52;14;13;
77892;PMS5003;67087;50.094;14.338;2023-06-26T07:48:17;12;11;
77892;PMS5003;67087;50.094;14.338;2023-06-26T07:50:42;11;11;
77892;PMS5003;67087;50.094;14.338;2023-06-26T07:53:07;12;11;
77892;PMS5003;67087;50.094;14.338;2023-06-26T07:55:32;11;11;
77892;PMS5003;67087;50.094;14.338;2023-06-26T07:57:57;12;11;
77892;PMS5003;67087;50.094;14.338;2023-06-26T08:00:22;10;10;
77892;PMS5003;67087;50.094;14.338;2023-06-26T08:02:48;9;9;
77892;PMS5003;67087;50.094;14.338;2023-06-26T08:05:13;12;10;
77892;PMS5003;67087;50.094;14.338;2023-06-26T08:07:37;11;10;
77892;PMS5003;67087;50.094;14.338;2023-06-26T08:10:03;12;12;
77892;PMS5003;67087;50.094;14.338;2023-06-26T08:12:28;11;9;
77892;PMS5003;67087;50.094;14.338;2023-06-26T08:14:53;10;10;
77892;PMS5003;67087;50.094;14.338;2023-06-26T08:17:18;9;9;
77892;PMS5003;67087;50.094;14.338;2023-06-26T08:19:43;10;10;
77892;PMS5003;67087;50.094;14.338;2023-06-26T08:22:08;12;12;
77892;PMS5003;67087;50.094;14.338;2023-06-26T08:24:33;11;11;
77892;PMS5003;67087;50.094;14.338;2023-06-26T08:26:58;10;10;
77892;PMS5003;67087;50.094;14.338;2023-06-26T08:29:24;11;10;
77892;PMS5003;67087;50.094;14.338;2023-06-26T08:31:49;11;10;
77892;PMS5003;67087;50.094;14.338;2023-06-26T08:34:14;11;10;
77892;PMS5003;67087;50.094;14.338;2023-06-26T08:36:39;8;8;
77892;PMS5003;67087;50.094;14.338;2023-06-26T08:39:04;7;7;
77892;PMS5003;67087;50.094;14.338;2023-06-26T08:41:29;9;9;
77892;PMS5003;67087;50.094;14.338;2023-06-26T08:43:55;12;12;
77892;PMS5003;67087;50.094;14.338;2023-06-26T08:46:20;11;11;
77892;PMS5003;67087;50.094;14.338;2023-06-26T08:48:48;13;12;
77892;PMS5003;67087;50.094;14.338;2023-06-26T08:51:11;11;11;
77892;PMS5003;67087;50.094;14.338;2023-06-26T08:53:36;11;11;
77892;PMS5003;67087;50.094;14.338;2023-06-26T08:56:00;13;12;
77892;PMS5003;67087;50.094;14.338;2023-06-26T08:58:25;12;12;
77892;PMS5003;67087;50.094;14.338;2023-06-26T09:00:50;14;11;
77892;PMS5003;67087;50.094;14.338;2023-06-26T09:03:15;12;11;
77892;PMS5003;67087;50.094;14.338;2023-06-26T09:05:40;13;11;
77892;PMS5003;67087;50.094;14.338;2023-06-26T09:08:06;13;13;
77892;PMS5003;67087;50.094;14.338;2023-06-26T09:10:31;10;10;
77892;PMS5003;67087;50.094;14.338;2023-06-26T09:12:56;14;11;
77892;PMS5003;67087;50.094;14.338;2023-06-26T09:15:22;11;10;
77892;PMS5003;67087;50.094;14.338;2023-06-26T09:17:47;11;11;
77892;PMS5003;67087;50.094;14.338;2023-06-26T09:20:12;8;8;
77892;PMS5003;67087;50.094;14.338;2023-06-26T09:22:37;12;12;
77892;PMS5003;67087;50.094;14.338;2023-06-26T09:25:03;11;10;
77892;PMS5003;67087;50.094;14.338;2023-06-26T09:27:27;13;13;
77892;PMS5003;67087;50.094;14.338;2023-06-26T09:29:53;10;9;
77892;PMS5003;67087;50.094;14.338;2023-06-26T09:32:18;9;9;
77892;PMS5003;67087;50.094;14.338;2023-06-26T09:34:43;10;10;
77892;PMS5003;67087;50.094;14.338;2023-06-26T09:37:08;10;10;
77892;PMS5003;67087;50.094;14.338;2023-06-26T09:39:33;11;11;
77892;PMS5003;67087;50.094;14.338;2023-06-26T09:41:58;9;9;
77892;PMS5003;67087;50.094;14.338;2023-06-26T09:44:23;11;11;
77892;PMS5003;67087;50.094;14.338;2023-06-26T09:46:48;12;12;
77892;PMS5003;67087;50.094;14.338;2023-06-26T09:49:13;9;9;
77892;PMS5003;67087;50.094;14.338;2023-06-26T09:51:39;10;10;
77892;PMS5003;67087;50.094;14.338;2023-06-26T09:54:04;10;10;
77892;PMS5003;67087;50.094;14.338;2023-06-26T09:56:28;12;12;
77892;PMS5003;67087;50.094;14.338;2023-06-26T09:58:54;12;11;
77892;PMS5003;67087;50.094;14.338;2023-06-26T10:01:18;9;8;
77892;PMS5003;67087;50.094;14.338;2023-06-26T10:03:44;8;8;
77892;PMS5003;67087;50.094;14.338;2023-06-26T10:06:09;12;11;
77892;PMS5003;67087;50.094;14.338;2023-06-26T10:08:33;10;10;
77892;PMS5003;67087;50.094;14.338;2023-06-26T10:10:59;11;11;
77892;PMS5003;67087;50.094;14.338;2023-06-26T10:13:24;12;11;
77892;PMS5003;67087;50.094;14.338;2023-06-26T10:15:49;9;9;
77892;PMS5003;67087;50.094;14.338;2023-06-26T10:18:14;11;11;
77892;PMS5003;67087;50.094;14.338;2023-06-26T10:20:39;9;9;
77892;PMS5003;67087;50.094;14.338;2023-06-26T10:23:04;12;11;
77892;PMS5003;67087;50.094;14.338;2023-06-26T10:25:29;10;10;
77892;PMS5003;67087;50.094;14.338;2023-06-26T10:27:55;9;9;
77892;PMS5003;67087;50.094;14.338;2023-06-26T10:30:20;9;9;
77892;PMS5003;67087;50.094;14.338;2023-06-26T10:32:45;11;10;
77892;PMS5003;67087;50.094;14.338;2023-06-26T10:35:09;11;10;
77892;PMS5003;67087;50.094;14.338;2023-06-26T10:37:41;8;8;
77892;PMS5003;67087;50.094;14.338;2023-06-26T10:39:59;9;9;
77892;PMS5003;67087;50.094;14.338;2023-06-26T10:42:34;9;9;
77892;PMS5003;67087;50.094;14.338;2023-06-26T10:44:49;9;9;
77892;PMS5003;67087;50.094;14.338;2023-06-26T10:49:40;10;10;
77892;PMS5003;67087;50.094;14.338;2023-06-26T10:52:05;10;10;
77892;PMS5003;67087;50.094;14.338;2023-06-26T10:54:31;14;13;
77892;PMS5003;67087;50.094;14.338;2023-06-26T10:56:55;9;9;
77892;PMS5003;67087;50.094;14.338;2023-06-26T10:59:21;10;9;
77892;PMS5003;67087;50.094;14.338;2023-06-26T11:01:46;10;10;
77892;PMS5003;67087;50.094;14.338;2023-06-26T11:04:10;9;9;
77892;PMS5003;67087;50.094;14.338;2023-06-26T11:06:36;11;11;
77892;PMS5003;67087;50.094;14.338;2023-06-26T11:09:01;8;8;
77892;PMS5003;67087;50.094;14.338;2023-06-26T11:13:50;10;10;
77892;PMS5003;67087;50.094;14.338;2023-06-26T11:16:15;10;10;
77892;PMS5003;67087;50.094;14.338;2023-06-26T11:18:41;10;10;
77892;PMS5003;67087;50.094;14.338;2023-06-26T11:21:06;8;8;
77892;PMS5003;67087;50.094;14.338;2023-06-26T11:23:31;11;10;
77892;PMS5003;67087;50.094;14.338;2023-06-26T11:25:56;9;9;
77892;PMS5003;67087;50.094;14.338;2023-06-26T11:28:21;8;8;
77892;PMS5003;67087;50.094;14.338;2023-06-26T11:30:46;10;10;
77892;PMS5003;67087;50.094;14.338;2023-06-26T11:33:11;8;8;
77892;PMS5003;67087;50.094;14.338;2023-06-26T11:35:36;13;13;
77892;PMS5003;67087;50.094;14.338;2023-06-26T11:38:01;8;8;
77892;PMS5003;67087;50.094;14.338;2023-06-26T11:40:26;9;9;
77892;PMS5003;67087;50.094;14.338;2023-06-26T11:42:51;10;10;
77892;PMS5003;67087;50.094;14.338;2023-06-26T11:45:16;10;10;
77892;PMS5003;67087;50.094;14.338;2023-06-26T11:47:41;9;8;
77892;PMS5003;67087;50.094;14.338;2023-06-26T11:50:07;10;9;
77892;PMS5003;67087;50.094;14.338;2023-06-26T11:52:32;11;11;
77892;PMS5003;67087;50.094;14.338;2023-06-26T11:54:57;9;8;
77892;PMS5003;67087;50.094;14.338;2023-06-26T11:57:22;9;9;
77892;PMS5003;67087;50.094;14.338;2023-06-26T11:59:50;9;9;
77892;PMS5003;67087;50.094;14.338;2023-06-26T12:02:13;9;8;
77892;PMS5003;67087;50.094;14.338;2023-06-26T12:04:37;9;8;
77892;PMS5003;67087;50.094;14.338;2023-06-26T12:07:03;11;11;
77892;PMS5003;67087;50.094;14.338;2023-06-26T12:09:28;9;9;
77892;PMS5003;67087;50.094;14.338;2023-06-26T12:11:53;9;9;
77892;PMS5003;67087;50.094;14.338;2023-06-26T12:14:18;10;9;
77892;PMS5003;67087;50.094;14.338;2023-06-26T12:16:43;7;7;
77892;PMS5003;67087;50.094;14.338;2023-06-26T12:19:08;11;10;
77892;PMS5003;67087;50.094;14.338;2023-06-26T12:23:58;9;8;
77892;PMS5003;67087;50.094;14.338;2023-06-26T12:26:23;10;10;
77892;PMS5003;67087;50.094;14.338;2023-06-26T12:28:48;8;8;
77892;PMS5003;67087;50.094;14.338;2023-06-26T12:31:13;10;10;
77892;PMS5003;67087;50.094;14.338;2023-06-26T12:33:38;12;11;
77892;PMS5003;67087;50.094;14.338;2023-06-26T12:36:04;13;12;
77892;PMS5003;67087;50.094;14.338;2023-06-26T12:38:32;11;11;
77892;PMS5003;67087;50.094;14.338;2023-06-26T12:40:56;10;10;
77892;PMS5003;67087;50.094;14.338;2023-06-26T12:43:23;13;13;
77892;PMS5003;67087;50.094;14.338;2023-06-26T12:45:46;11;11;
77892;PMS5003;67087;50.094;14.338;2023-06-26T12:48:11;12;10;
77892;PMS5003;67087;50.094;14.338;2023-06-26T12:50:37;11;11;
77892;PMS5003;67087;50.094;14.338;2023-06-26T12:53:01;12;11;
77892;PMS5003;67087;50.094;14.338;2023-06-26T12:55:26;11;11;
77892;PMS5003;67087;50.094;14.338;2023-06-26T12:57:51;13;12;
77892;PMS5003;67087;50.094;14.338;2023-06-26T13:00:17;14;12;
77892;PMS5003;67087;50.094;14.338;2023-06-26T13:02:42;11;11;
77892;PMS5003;67087;50.094;14.338;2023-06-26T13:05:07;12;11;
77892;PMS5003;67087;50.094;14.338;2023-06-26T13:07:32;10;10;
77892;PMS5003;67087;50.094;14.338;2023-06-26T13:09:57;15;13;
77892;PMS5003;67087;50.094;14.338;2023-06-26T13:12:23;10;10;
77892;PMS5003;67087;50.094;14.338;2023-06-26T13:14:48;10;9;
77892;PMS5003;67087;50.094;14.338;2023-06-26T13:17:13;10;10;
77892;PMS5003;67087;50.094;14.338;2023-06-26T13:19:38;13;13;
77892;PMS5003;67087;50.094;14.338;2023-06-26T13:22:04;10;10;
77892;PMS5003;67087;50.094;14.338;2023-06-26T13:24:29;11;10;
77892;PMS5003;67087;50.094;14.338;2023-06-26T13:26:54;14;12;
77892;PMS5003;67087;50.094;14.338;2023-06-26T13:29:19;13;10;
77892;PMS5003;67087;50.094;14.338;2023-06-26T13:31:44;9;8;
77892;PMS5003;67087;50.094;14.338;2023-06-26T13:34:09;9;9;
77892;PMS5003;67087;50.094;14.338;2023-06-26T13:36:34;10;9;
77892;PMS5003;67087;50.094;14.338;2023-06-26T13:39:00;10;10;
77892;PMS5003;67087;50.094;14.338;2023-06-26T13:41:25;10;10;
77892;PMS5003;67087;50.094;14.338;2023-06-26T13:43:50;12;12;
77892;PMS5003;67087;50.094;14.338;2023-06-26T13:46:15;12;11;
77892;PMS5003;67087;50.094;14.338;2023-06-26T13:48:39;10;9;
77892;PMS5003;67087;50.094;14.338;2023-06-26T13:51:05;12;12;
77892;PMS5003;67087;50.094;14.338;2023-06-26T13:53:30;10;10;
77892;PMS5003;67087;50.094;14.338;2023-06-26T13:55:55;10;10;
77892;PMS5003;67087;50.094;14.338;2023-06-26T13:58:20;10;9;
77892;PMS5003;67087;50.094;14.338;2023-06-26T14:00:45;12;10;
77892;PMS5003;67087;50.094;14.338;2023-06-26T14:03:11;10;10;
77892;PMS5003;67087;50.094;14.338;2023-06-26T14:05:36;9;9;
77892;PMS5003;67087;50.094;14.338;2023-06-26T14:08:02;12;11;
77892;PMS5003;67087;50.094;14.338;2023-06-26T14:10:27;9;9;
77892;PMS5003;67087;50.094;14.338;2023-06-26T14:12:52;13;12;
77892;PMS5003;67087;50.094;14.338;2023-06-26T14:15:17;11;11;
77892;PMS5003;67087;50.094;14.338;2023-06-26T14:17:43;11;11;
77892;PMS5003;67087;50.094;14.338;2023-06-26T14:20:08;12;11;
77892;PMS5003;67087;50.094;14.338;2023-06-26T14:22:33;12;11;
77892;PMS5003;67087;50.094;14.338;2023-06-26T14:24:59;10;9;
77892;PMS5003;67087;50.094;14.338;2023-06-26T14:27:24;9;8;
77892;PMS5003;67087;50.094;14.338;2023-06-26T14:29:50;10;10;
77892;PMS5003;67087;50.094;14.338;2023-06-26T14:32:14;11;10;
77892;PMS5003;67087;50.094;14.338;2023-06-26T14:34:40;10;10;
77892;PMS5003;67087;50.094;14.338;2023-06-26T14:37:05;12;11;
77892;PMS5003;67087;50.094;14.338;2023-06-26T14:39:30;12;12;
77892;PMS5003;67087;50.094;14.338;2023-06-26T14:41:55;11;11;
77892;PMS5003;67087;50.094;14.338;2023-06-26T14:44:20;9;9;
77892;PMS5003;67087;50.094;14.338;2023-06-26T14:46:45;12;12;
77892;PMS5003;67087;50.094;14.338;2023-06-26T14:49:11;9;9;
77892;PMS5003;67087;50.094;14.338;2023-06-26T14:51:36;12;11;
77892;PMS5003;67087;50.094;14.338;2023-06-26T14:54:01;11;10;
77892;PMS5003;67087;50.094;14.338;2023-06-26T14:56:26;9;9;
77892;PMS5003;67087;50.094;14.338;2023-06-26T14:58:51;11;10;
77892;PMS5003;67087;50.094;14.338;2023-06-26T15:01:17;9;9;
77892;PMS5003;67087;50.094;14.338;2023-06-26T15:03:42;11;10;
77892;PMS5003;67087;50.094;14.338;2023-06-26T15:06:07;10;10;
77892;PMS5003;67087;50.094;14.338;2023-06-26T15:08:33;10;10;
77892;PMS5003;67087;50.094;14.338;2023-06-26T15:10:59;13;13;
77892;PMS5003;67087;50.094;14.338;2023-06-26T15:13:23;13;12;
77892;PMS5003;67087;50.094;14.338;2023-06-26T15:15:49;13;12;
77892;PMS5003;67087;50.094;14.338;2023-06-26T15:18:13;11;11;
77892;PMS5003;67087;50.094;14.338;2023-06-26T15:20:38;11;11;
77892;PMS5003;67087;50.094;14.338;2023-06-26T15:23:03;10;10;
77892;PMS5003;67087;50.094;14.338;2023-06-26T15:25:29;11;10;
77892;PMS5003;67087;50.094;14.338;2023-06-26T15:27:54;11;11;
77892;PMS5003;67087;50.094;14.338;2023-06-26T15:30:19;11;11;
77892;PMS5003;67087;50.094;14.338;2023-06-26T15:32:44;11;10;
77892;PMS5003;67087;50.094;14.338;2023-06-26T15:35:09;9;9;
77892;PMS5003;67087;50.094;14.338;2023-06-26T15:37:35;11;10;
77892;PMS5003;67087;50.094;14.338;2023-06-26T15:40:00;12;12;
77892;PMS5003;67087;50.094;14.338;2023-06-26T15:42:27;12;12;
77892;PMS5003;67087;50.094;14.338;2023-06-26T15:44:52;12;11;
77892;PMS5003;67087;50.094;14.338;2023-06-26T15:47:18;12;12;
77892;PMS5003;67087;50.094;14.338;2023-06-26T15:49:43;12;12;
77892;PMS5003;67087;50.094;14.338;2023-06-26T15:52:09;13;11;
77892;PMS5003;67087;50.094;14.338;2023-06-26T15:54:34;13;13;
77892;PMS5003;67087;50.094;14.338;2023-06-26T15:57:00;12;12;
77892;PMS5003;67087;50.094;14.338;2023-06-26T15:59:26;12;11;
77892;PMS5003;67087;50.094;14.338;2023-06-26T16:01:52;14;14;
77892;PMS5003;67087;50.094;14.338;2023-06-26T16:04:17;14;14;
77892;PMS5003;67087;50.094;14.338;2023-06-26T16:06:43;14;13;
77892;PMS5003;67087;50.094;14.338;2023-06-26T16:09:08;17;15;